sensor_id;sensor_type;location;lat;lon;timestamp;temperature;humidity
74384;DHT22;62824;52.994;-3.936;2023-07-08T00:02:10;20.10;17.50
74384;DHT22;62824;52.994;-3.936;2023-07-08T00:04:37;20.10;17.90
74384;DHT22;62824;52.994;-3.936;2023-07-08T00:07:03;20.00;17.70
74384;DHT22;62824;52.994;-3.936;2023-07-08T00:09:29;20.00;18.30
74384;DHT22;62824;52.994;-3.936;2023-07-08T00:11:56;20.00;18.90
74384;DHT22;62824;52.994;-3.936;2023-07-08T00:14:23;20.00;19.80
74384;DHT22;62824;52.994;-3.936;2023-07-08T00:16:49;20.00;19.90
74384;DHT22;62824;52.994;-3.936;2023-07-08T00:19:17;19.90;21.60
74384;DHT22;62824;52.994;-3.936;2023-07-08T00:21:47;20.00;20.70
74384;DHT22;62824;52.994;-3.936;2023-07-08T00:24:13;20.00;20.80
74384;DHT22;62824;52.994;-3.936;2023-07-08T00:26:39;20.00;21.80
74384;DHT22;62824;52.994;-3.936;2023-07-08T00:29:17;20.10;19.80
74384;DHT22;62824;52.994;-3.936;2023-07-08T00:31:43;20.10;20.80
74384;DHT22;62824;52.994;-3.936;2023-07-08T00:34:09;20.10;20.60
74384;DHT22;62824;52.994;-3.936;2023-07-08T00:36:35;20.10;20.70
74384;DHT22;62824;52.994;-3.936;2023-07-08T00:39:01;20.00;21.60
74384;DHT22;62824;52.994;-3.936;2023-07-08T00:41:33;20.00;21.60
74384;DHT22;62824;52.994;-3.936;2023-07-08T00:44:00;20.00;22.30
74384;DHT22;62824;52.994;-3.936;2023-07-08T00:51:37;19.80;26.40
74384;DHT22;62824;52.994;-3.936;2023-07-08T00:54:04;19.80;26.50
74384;DHT22;62824;52.994;-3.936;2023-07-08T00:56:36;19.80;26.50
74384;DHT22;62824;52.994;-3.936;2023-07-08T00:59:29;19.70;27.60
74384;DHT22;62824;52.994;-3.936;2023-07-08T01:01:54;19.80;27.90
74384;DHT22;62824;52.994;-3.936;2023-07-08T01:07:10;19.70;29.70
74384;DHT22;62824;52.994;-3.936;2023-07-08T01:09:42;19.80;29.90
74384;DHT22;62824;52.994;-3.936;2023-07-08T01:12:13;19.80;29.60
74384;DHT22;62824;52.994;-3.936;2023-07-08T01:14:41;19.80;29.30
74384;DHT22;62824;52.994;-3.936;2023-07-08T01:17:08;19.80;29.70
74384;DHT22;62824;52.994;-3.936;2023-07-08T01:19:43;19.80;30.40
74384;DHT22;62824;52.994;-3.936;2023-07-08T01:22:09;19.80;30.20
74384;DHT22;62824;52.994;-3.936;2023-07-08T01:24:37;19.80;31.50
74384;DHT22;62824;52.994;-3.936;2023-07-08T01:27:06;19.80;31.10
74384;DHT22;62824;52.994;-3.936;2023-07-08T01:29:32;19.80;31.70
74384;DHT22;62824;52.994;-3.936;2023-07-08T01:31:59;19.80;35.60
74384;DHT22;62824;52.994;-3.936;2023-07-08T01:34:31;19.80;32.50
74384;DHT22;62824;52.994;-3.936;2023-07-08T01:36:59;19.90;29.80
74384;DHT22;62824;52.994;-3.936;2023-07-08T01:39:28;20.10;29.00
74384;DHT22;62824;52.994;-3.936;2023-07-08T01:41:56;20.10;31.30
74384;DHT22;62824;52.994;-3.936;2023-07-08T01:44:33;20.10;30.20
74384;DHT22;62824;52.994;-3.936;2023-07-08T01:47:09;20.10;32.10
74384;DHT22;62824;52.994;-3.936;2023-07-08T01:49:37;20.00;32.60
74384;DHT22;62824;52.994;-3.936;2023-07-08T01:52:06;20.00;34.60
74384;DHT22;62824;52.994;-3.936;2023-07-08T01:54:32;20.10;28.40
74384;DHT22;62824;52.994;-3.936;2023-07-08T01:56:58;20.20;28.30
74384;DHT22;62824;52.994;-3.936;2023-07-08T01:59:24;20.30;27.10
74384;DHT22;62824;52.994;-3.936;2023-07-08T02:01:50;20.30;26.60
74384;DHT22;62824;52.994;-3.936;2023-07-08T02:04:24;20.30;27.70
74384;DHT22;62824;52.994;-3.936;2023-07-08T02:06:59;20.40;27.90
74384;DHT22;62824;52.994;-3.936;2023-07-08T02:09:25;20.30;27.90
74384;DHT22;62824;52.994;-3.936;2023-07-08T02:11:52;20.30;28.80
74384;DHT22;62824;52.994;-3.936;2023-07-08T02:14:18;20.30;28.30
74384;DHT22;62824;52.994;-3.936;2023-07-08T02:16:44;20.30;28.50
74384;DHT22;62824;52.994;-3.936;2023-07-08T02:19:12;20.20;30.10
74384;DHT22;62824;52.994;-3.936;2023-07-08T02:21:38;20.20;30.40
74384;DHT22;62824;52.994;-3.936;2023-07-08T02:24:05;20.10;33.90
74384;DHT22;62824;52.994;-3.936;2023-07-08T02:26:30;20.00;35.60
74384;DHT22;62824;52.994;-3.936;2023-07-08T02:28:59;20.00;37.60
74384;DHT22;62824;52.994;-3.936;2023-07-08T02:31:26;20.00;36.80
74384;DHT22;62824;52.994;-3.936;2023-07-08T02:33:52;20.00;37.80
74384;DHT22;62824;52.994;-3.936;2023-07-08T02:36:18;20.00;37.50
74384;DHT22;62824;52.994;-3.936;2023-07-08T02:38:44;19.90;37.90
74384;DHT22;62824;52.994;-3.936;2023-07-08T02:41:10;20.00;39.10
74384;DHT22;62824;52.994;-3.936;2023-07-08T02:43:37;19.90;39.10
74384;DHT22;62824;52.994;-3.936;2023-07-08T02:46:04;20.00;38.80
74384;DHT22;62824;52.994;-3.936;2023-07-08T02:48:29;19.90;39.70
74384;DHT22;62824;52.994;-3.936;2023-07-08T02:50:59;19.90;39.30
74384;DHT22;62824;52.994;-3.936;2023-07-08T02:53:25;19.90;39.40
74384;DHT22;62824;52.994;-3.936;2023-07-08T02:55:51;19.90;42.90
74384;DHT22;62824;52.994;-3.936;2023-07-08T02:58:17;20.00;38.50
74384;DHT22;62824;52.994;-3.936;2023-07-08T03:00:42;19.90;40.10
74384;DHT22;62824;52.994;-3.936;2023-07-08T03:03:08;19.90;41.10
74384;DHT22;62824;52.994;-3.936;2023-07-08T03:05:34;19.90;41.90
74384;DHT22;62824;52.994;-3.936;2023-07-08T03:08:00;19.90;40.50
74384;DHT22;62824;52.994;-3.936;2023-07-08T03:10:26;19.90;42.30
74384;DHT22;62824;52.994;-3.936;2023-07-08T03:12:52;19.90;42.50
74384;DHT22;62824;52.994;-3.936;2023-07-08T03:15:17;19.90;42.90
74384;DHT22;62824;52.994;-3.936;2023-07-08T03:17:43;19.90;44.00
74384;DHT22;62824;52.994;-3.936;2023-07-08T03:20:09;19.90;43.10
74384;DHT22;62824;52.994;-3.936;2023-07-08T03:22:36;19.90;43.70
74384;DHT22;62824;52.994;-3.936;2023-07-08T03:25:02;19.90;43.00
74384;DHT22;62824;52.994;-3.936;2023-07-08T03:27:28;20.00;40.30
74384;DHT22;62824;52.994;-3.936;2023-07-08T03:29:54;20.10;39.50
74384;DHT22;62824;52.994;-3.936;2023-07-08T03:32:20;20.00;42.10
74384;DHT22;62824;52.994;-3.936;2023-07-08T03:34:46;20.10;41.80
74384;DHT22;62824;52.994;-3.936;2023-07-08T03:37:12;20.00;42.90
74384;DHT22;62824;52.994;-3.936;2023-07-08T03:39:37;20.00;44.00
74384;DHT22;62824;52.994;-3.936;2023-07-08T03:42:03;20.00;43.40
74384;DHT22;62824;52.994;-3.936;2023-07-08T03:44:30;19.90;45.40
74384;DHT22;62824;52.994;-3.936;2023-07-08T03:46:56;19.90;49.30
74384;DHT22;62824;52.994;-3.936;2023-07-08T03:49:22;19.90;49.20
74384;DHT22;62824;52.994;-3.936;2023-07-08T03:51:51;19.90;50.00
74384;DHT22;62824;52.994;-3.936;2023-07-08T03:54:18;19.90;52.40
74384;DHT22;62824;52.994;-3.936;2023-07-08T03:56:44;19.80;56.40
74384;DHT22;62824;52.994;-3.936;2023-07-08T03:59:10;19.90;50.20
74384;DHT22;62824;52.994;-3.936;2023-07-08T04:01:36;19.90;55.10
74384;DHT22;62824;52.994;-3.936;2023-07-08T04:04:08;19.80;56.70
74384;DHT22;62824;52.994;-3.936;2023-07-08T04:06:34;19.70;57.80
74384;DHT22;62824;52.994;-3.936;2023-07-08T04:09:00;19.60;59.80
74384;DHT22;62824;52.994;-3.936;2023-07-08T04:11:26;19.60;66.20
74384;DHT22;62824;52.994;-3.936;2023-07-08T04:13:52;19.50;69.00
74384;DHT22;62824;52.994;-3.936;2023-07-08T04:16:27;19.40;71.70
74384;DHT22;62824;52.994;-3.936;2023-07-08T04:18:54;19.40;73.30
74384;DHT22;62824;52.994;-3.936;2023-07-08T04:21:21;19.40;76.00
74384;DHT22;62824;52.994;-3.936;2023-07-08T04:23:48;19.40;78.50
74384;DHT22;62824;52.994;-3.936;2023-07-08T04:26:14;19.30;79.50
74384;DHT22;62824;52.994;-3.936;2023-07-08T04:28:42;19.30;79.60
74384;DHT22;62824;52.994;-3.936;2023-07-08T04:31:08;19.30;80.50
74384;DHT22;62824;52.994;-3.936;2023-07-08T04:33:33;19.30;84.70
74384;DHT22;62824;52.994;-3.936;2023-07-08T04:35:59;19.30;83.30
74384;DHT22;62824;52.994;-3.936;2023-07-08T04:38:26;19.30;86.70
74384;DHT22;62824;52.994;-3.936;2023-07-08T04:40:53;19.20;88.10
74384;DHT22;62824;52.994;-3.936;2023-07-08T04:43:20;19.20;86.50
74384;DHT22;62824;52.994;-3.936;2023-07-08T04:45:48;19.30;85.30
74384;DHT22;62824;52.994;-3.936;2023-07-08T04:48:19;19.30;87.20
74384;DHT22;62824;52.994;-3.936;2023-07-08T04:50:48;19.40;84.10
74384;DHT22;62824;52.994;-3.936;2023-07-08T04:53:15;19.40;84.50
74384;DHT22;62824;52.994;-3.936;2023-07-08T04:55:53;19.40;84.20
74384;DHT22;62824;52.994;-3.936;2023-07-08T04:58:19;19.50;84.20
74384;DHT22;62824;52.994;-3.936;2023-07-08T05:00:45;19.50;82.10
74384;DHT22;62824;52.994;-3.936;2023-07-08T05:03:11;19.50;81.50
74384;DHT22;62824;52.994;-3.936;2023-07-08T05:05:37;19.60;82.50
74384;DHT22;62824;52.994;-3.936;2023-07-08T05:08:03;19.60;84.50
74384;DHT22;62824;52.994;-3.936;2023-07-08T05:10:29;19.60;85.10
74384;DHT22;62824;52.994;-3.936;2023-07-08T05:12:55;19.60;85.20
74384;DHT22;62824;52.994;-3.936;2023-07-08T05:15:21;19.60;83.60
74384;DHT22;62824;52.994;-3.936;2023-07-08T05:17:47;19.70;82.80
74384;DHT22;62824;52.994;-3.936;2023-07-08T05:20:14;19.70;83.20
74384;DHT22;62824;52.994;-3.936;2023-07-08T05:22:40;19.70;82.50
74384;DHT22;62824;52.994;-3.936;2023-07-08T05:25:08;19.80;83.60
74384;DHT22;62824;52.994;-3.936;2023-07-08T05:27:35;19.70;83.40
74384;DHT22;62824;52.994;-3.936;2023-07-08T05:30:02;19.80;86.00
74384;DHT22;62824;52.994;-3.936;2023-07-08T05:32:27;19.80;84.10
74384;DHT22;62824;52.994;-3.936;2023-07-08T05:34:53;19.80;83.90
74384;DHT22;62824;52.994;-3.936;2023-07-08T05:37:20;19.80;84.20
74384;DHT22;62824;52.994;-3.936;2023-07-08T05:39:54;19.80;85.70
74384;DHT22;62824;52.994;-3.936;2023-07-08T05:42:21;19.90;84.40
74384;DHT22;62824;52.994;-3.936;2023-07-08T05:44:47;19.90;84.30
74384;DHT22;62824;52.994;-3.936;2023-07-08T05:47:14;20.00;85.50
74384;DHT22;62824;52.994;-3.936;2023-07-08T05:49:40;20.00;86.10
74384;DHT22;62824;52.994;-3.936;2023-07-08T05:52:06;20.10;85.80
74384;DHT22;62824;52.994;-3.936;2023-07-08T05:54:40;20.10;84.20
74384;DHT22;62824;52.994;-3.936;2023-07-08T05:57:08;20.10;85.10
74384;DHT22;62824;52.994;-3.936;2023-07-08T05:59:35;20.10;85.00
74384;DHT22;62824;52.994;-3.936;2023-07-08T06:02:01;20.10;87.00
74384;DHT22;62824;52.994;-3.936;2023-07-08T06:04:27;20.10;88.50
74384;DHT22;62824;52.994;-3.936;2023-07-08T06:06:53;20.20;86.70
74384;DHT22;62824;52.994;-3.936;2023-07-08T06:09:20;20.30;86.20
74384;DHT22;62824;52.994;-3.936;2023-07-08T06:11:46;20.30;84.80
74384;DHT22;62824;52.994;-3.936;2023-07-08T06:14:12;20.50;85.70
74384;DHT22;62824;52.994;-3.936;2023-07-08T06:16:38;20.50;85.70
74384;DHT22;62824;52.994;-3.936;2023-07-08T06:19:03;20.60;84.00
74384;DHT22;62824;52.994;-3.936;2023-07-08T06:21:29;20.70;81.70
74384;DHT22;62824;52.994;-3.936;2023-07-08T06:23:55;20.80;82.10
74384;DHT22;62824;52.994;-3.936;2023-07-08T06:26:21;20.90;82.40
74384;DHT22;62824;52.994;-3.936;2023-07-08T06:28:46;20.90;79.60
74384;DHT22;62824;52.994;-3.936;2023-07-08T06:31:12;20.90;76.80
74384;DHT22;62824;52.994;-3.936;2023-07-08T06:33:38;20.90;76.80
74384;DHT22;62824;52.994;-3.936;2023-07-08T06:36:04;20.90;77.40
74384;DHT22;62824;52.994;-3.936;2023-07-08T06:38:32;20.90;78.20
74384;DHT22;62824;52.994;-3.936;2023-07-08T06:40:58;20.90;80.40
74384;DHT22;62824;52.994;-3.936;2023-07-08T06:43:23;21.00;80.90
74384;DHT22;62824;52.994;-3.936;2023-07-08T06:45:49;21.10;79.80
74384;DHT22;62824;52.994;-3.936;2023-07-08T06:48:15;21.20;79.50
74384;DHT22;62824;52.994;-3.936;2023-07-08T06:50:47;21.20;80.60
74384;DHT22;62824;52.994;-3.936;2023-07-08T06:53:14;21.10;83.80
74384;DHT22;62824;52.994;-3.936;2023-07-08T06:55:40;21.10;85.80
74384;DHT22;62824;52.994;-3.936;2023-07-08T06:58:06;21.00;88.00
74384;DHT22;62824;52.994;-3.936;2023-07-08T07:00:32;21.10;88.60
74384;DHT22;62824;52.994;-3.936;2023-07-08T07:02:58;21.10;88.50
74384;DHT22;62824;52.994;-3.936;2023-07-08T07:05:23;21.10;89.90
74384;DHT22;62824;52.994;-3.936;2023-07-08T07:07:50;21.10;90.20
74384;DHT22;62824;52.994;-3.936;2023-07-08T07:10:15;21.00;90.80
74384;DHT22;62824;52.994;-3.936;2023-07-08T07:12:41;21.00;89.90
74384;DHT22;62824;52.994;-3.936;2023-07-08T07:15:07;21.00;90.00
74384;DHT22;62824;52.994;-3.936;2023-07-08T07:17:33;21.00;90.50
74384;DHT22;62824;52.994;-3.936;2023-07-08T07:20:01;21.00;90.80
74384;DHT22;62824;52.994;-3.936;2023-07-08T07:22:27;21.00;91.90
74384;DHT22;62824;52.994;-3.936;2023-07-08T07:24:54;21.00;91.80
74384;DHT22;62824;52.994;-3.936;2023-07-08T07:27:20;21.00;92.30
74384;DHT22;62824;52.994;-3.936;2023-07-08T07:29:48;20.90;92.90
74384;DHT22;62824;52.994;-3.936;2023-07-08T07:32:15;20.90;94.00
74384;DHT22;62824;52.994;-3.936;2023-07-08T07:34:41;20.80;95.30
74384;DHT22;62824;52.994;-3.936;2023-07-08T07:37:14;20.80;96.10
74384;DHT22;62824;52.994;-3.936;2023-07-08T07:39:41;20.80;97.20
74384;DHT22;62824;52.994;-3.936;2023-07-08T07:42:08;20.80;95.60
74384;DHT22;62824;52.994;-3.936;2023-07-08T07:44:34;20.70;96.40
74384;DHT22;62824;52.994;-3.936;2023-07-08T07:47:01;20.70;96.90
74384;DHT22;62824;52.994;-3.936;2023-07-08T07:49:27;20.70;97.70
74384;DHT22;62824;52.994;-3.936;2023-07-08T07:51:53;20.60;98.70
74384;DHT22;62824;52.994;-3.936;2023-07-08T07:54:19;20.60;99.90
74384;DHT22;62824;52.994;-3.936;2023-07-08T07:56:45;20.70;99.90
74384;DHT22;62824;52.994;-3.936;2023-07-08T07:59:11;20.60;99.90
74384;DHT22;62824;52.994;-3.936;2023-07-08T08:01:37;20.60;99.90
74384;DHT22;62824;52.994;-3.936;2023-07-08T08:04:04;20.60;99.90
74384;DHT22;62824;52.994;-3.936;2023-07-08T08:06:30;20.60;99.90
74384;DHT22;62824;52.994;-3.936;2023-07-08T08:08:56;20.50;99.90
74384;DHT22;62824;52.994;-3.936;2023-07-08T08:11:23;20.50;99.90
74384;DHT22;62824;52.994;-3.936;2023-07-08T08:13:51;20.40;99.90
74384;DHT22;62824;52.994;-3.936;2023-07-08T08:16:18;20.40;99.90
74384;DHT22;62824;52.994;-3.936;2023-07-08T08:18:45;20.50;99.90
74384;DHT22;62824;52.994;-3.936;2023-07-08T08:21:11;20.50;99.90
74384;DHT22;62824;52.994;-3.936;2023-07-08T08:23:37;20.50;99.90
74384;DHT22;62824;52.994;-3.936;2023-07-08T08:26:02;20.30;99.90
74384;DHT22;62824;52.994;-3.936;2023-07-08T08:28:28;20.40;99.90
74384;DHT22;62824;52.994;-3.936;2023-07-08T08:30:54;20.40;99.90
74384;DHT22;62824;52.994;-3.936;2023-07-08T08:33:20;20.40;99.90
74384;DHT22;62824;52.994;-3.936;2023-07-08T08:35:46;20.40;99.90
74384;DHT22;62824;52.994;-3.936;2023-07-08T08:38:12;20.50;99.90
74384;DHT22;62824;52.994;-3.936;2023-07-08T08:40:42;20.60;99.90
74384;DHT22;62824;52.994;-3.936;2023-07-08T08:43:15;20.50;99.90
74384;DHT22;62824;52.994;-3.936;2023-07-08T08:48:19;20.50;99.90
74384;DHT22;62824;52.994;-3.936;2023-07-08T08:51:21;20.50;99.90
74384;DHT22;62824;52.994;-3.936;2023-07-08T08:53:48;20.50;99.90
74384;DHT22;62824;52.994;-3.936;2023-07-08T08:56:21;20.50;99.90
74384;DHT22;62824;52.994;-3.936;2023-07-08T09:01:47;20.50;99.90
74384;DHT22;62824;52.994;-3.936;2023-07-08T09:04:24;20.50;99.90
74384;DHT22;62824;52.994;-3.936;2023-07-08T09:06:58;20.30;99.90
74384;DHT22;62824;52.994;-3.936;2023-07-08T09:09:47;19.90;99.90
74384;DHT22;62824;52.994;-3.936;2023-07-08T09:12:22;19.50;99.90
74384;DHT22;62824;52.994;-3.936;2023-07-08T09:14:50;19.20;99.90
74384;DHT22;62824;52.994;-3.936;2023-07-08T09:17:30;19.20;99.90
74384;DHT22;62824;52.994;-3.936;2023-07-08T09:22:46;18.90;99.90
74384;DHT22;62824;52.994;-3.936;2023-07-08T09:25:30;18.80;99.90
74384;DHT22;62824;52.994;-3.936;2023-07-08T09:28:00;18.80;99.90
74384;DHT22;62824;52.994;-3.936;2023-07-08T09:30:27;18.80;99.90
74384;DHT22;62824;52.994;-3.936;2023-07-08T09:32:54;18.70;99.90
74384;DHT22;62824;52.994;-3.936;2023-07-08T09:35:29;18.70;99.90
74384;DHT22;62824;52.994;-3.936;2023-07-08T09:38:07;18.90;99.90
74384;DHT22;62824;52.994;-3.936;2023-07-08T09:40:34;18.90;99.90
74384;DHT22;62824;52.994;-3.936;2023-07-08T09:43:25;18.80;99.90
74384;DHT22;62824;52.994;-3.936;2023-07-08T09:45:51;18.80;99.90
74384;DHT22;62824;52.994;-3.936;2023-07-08T09:48:24;18.80;99.90
74384;DHT22;62824;52.994;-3.936;2023-07-08T09:50:56;18.80;99.90
74384;DHT22;62824;52.994;-3.936;2023-07-08T09:53:22;18.70;99.90
74384;DHT22;62824;52.994;-3.936;2023-07-08T09:55:50;18.70;99.90
74384;DHT22;62824;52.994;-3.936;2023-07-08T09:58:24;18.80;99.90
74384;DHT22;62824;52.994;-3.936;2023-07-08T10:00:55;18.80;99.90
74384;DHT22;62824;52.994;-3.936;2023-07-08T10:03:25;18.70;99.90
74384;DHT22;62824;52.994;-3.936;2023-07-08T10:05:56;18.70;99.90
74384;DHT22;62824;52.994;-3.936;2023-07-08T10:08:25;18.90;99.90
74384;DHT22;62824;52.994;-3.936;2023-07-08T10:13:56;19.10;99.90
74384;DHT22;62824;52.994;-3.936;2023-07-08T10:16:31;19.00;99.90
74384;DHT22;62824;52.994;-3.936;2023-07-08T10:18:58;19.00;99.90
74384;DHT22;62824;52.994;-3.936;2023-07-08T10:24:30;18.70;99.90
74384;DHT22;62824;52.994;-3.936;2023-07-08T10:32:24;18.60;99.90
74384;DHT22;62824;52.994;-3.936;2023-07-08T10:35:18;18.60;99.90
74384;DHT22;62824;52.994;-3.936;2023-07-08T10:40:31;18.80;99.90
74384;DHT22;62824;52.994;-3.936;2023-07-08T10:43:15;18.70;99.90
74384;DHT22;62824;52.994;-3.936;2023-07-08T10:53:46;18.90;99.90
74384;DHT22;62824;52.994;-3.936;2023-07-08T10:59:01;19.00;99.90
74384;DHT22;62824;52.994;-3.936;2023-07-08T11:07:26;19.30;99.90
74384;DHT22;62824;52.994;-3.936;2023-07-08T11:09:57;19.30;99.90
74384;DHT22;62824;52.994;-3.936;2023-07-08T11:15:23;19.40;99.90
74384;DHT22;62824;52.994;-3.936;2023-07-08T11:18:14;19.40;99.90
74384;DHT22;62824;52.994;-3.936;2023-07-08T11:21:01;19.40;99.90
74384;DHT22;62824;52.994;-3.936;2023-07-08T11:26:30;19.20;99.90
74384;DHT22;62824;52.994;-3.936;2023-07-08T11:29:01;19.10;99.90
74384;DHT22;62824;52.994;-3.936;2023-07-08T11:31:31;18.90;99.90
74384;DHT22;62824;52.994;-3.936;2023-07-08T11:33:59;19.00;99.90
74384;DHT22;62824;52.994;-3.936;2023-07-08T11:36:27;19.00;99.90
74384;DHT22;62824;52.994;-3.936;2023-07-08T11:38:55;18.90;99.90
74384;DHT22;62824;52.994;-3.936;2023-07-08T11:41:30;18.90;99.90
74384;DHT22;62824;52.994;-3.936;2023-07-08T11:43:59;18.90;99.90
74384;DHT22;62824;52.994;-3.936;2023-07-08T11:46:31;19.00;99.90
74384;DHT22;62824;52.994;-3.936;2023-07-08T11:49:13;18.90;99.90
74384;DHT22;62824;52.994;-3.936;2023-07-08T11:51:43;18.90;99.90
74384;DHT22;62824;52.994;-3.936;2023-07-08T11:59:25;18.60;99.90
74384;DHT22;62824;52.994;-3.936;2023-07-08T12:01:54;18.60;99.90
74384;DHT22;62824;52.994;-3.936;2023-07-08T12:04:27;18.50;99.90
74384;DHT22;62824;52.994;-3.936;2023-07-08T12:07:14;18.50;99.90
74384;DHT22;62824;52.994;-3.936;2023-07-08T12:09:59;18.50;99.90
74384;DHT22;62824;52.994;-3.936;2023-07-08T12:12:35;18.60;99.90
74384;DHT22;62824;52.994;-3.936;2023-07-08T12:15:15;18.80;99.90
74384;DHT22;62824;52.994;-3.936;2023-07-08T12:17:47;18.90;99.90
74384;DHT22;62824;52.994;-3.936;2023-07-08T12:20:27;19.00;99.90
74384;DHT22;62824;52.994;-3.936;2023-07-08T12:22:53;18.80;99.90
74384;DHT22;62824;52.994;-3.936;2023-07-08T12:25:26;18.70;99.90
74384;DHT22;62824;52.994;-3.936;2023-07-08T12:27:52;18.40;99.90
74384;DHT22;62824;52.994;-3.936;2023-07-08T12:30:20;18.40;99.90
74384;DHT22;62824;52.994;-3.936;2023-07-08T12:32:46;18.30;99.90
74384;DHT22;62824;52.994;-3.936;2023-07-08T12:35:24;18.60;99.90
74384;DHT22;62824;52.994;-3.936;2023-07-08T12:37:56;18.60;99.90
74384;DHT22;62824;52.994;-3.936;2023-07-08T12:40:23;18.60;99.90
74384;DHT22;62824;52.994;-3.936;2023-07-08T12:42:49;18.60;99.90
74384;DHT22;62824;52.994;-3.936;2023-07-08T12:45:17;18.80;99.90
74384;DHT22;62824;52.994;-3.936;2023-07-08T12:47:44;18.90;99.90
74384;DHT22;62824;52.994;-3.936;2023-07-08T12:50:15;19.40;99.90
74384;DHT22;62824;52.994;-3.936;2023-07-08T12:52:43;19.70;99.90
74384;DHT22;62824;52.994;-3.936;2023-07-08T12:55:11;20.00;99.90
74384;DHT22;62824;52.994;-3.936;2023-07-08T12:57:48;20.00;99.90
74384;DHT22;62824;52.994;-3.936;2023-07-08T13:00:37;19.90;99.90
74384;DHT22;62824;52.994;-3.936;2023-07-08T13:03:16;19.80;99.90
74384;DHT22;62824;52.994;-3.936;2023-07-08T13:05:43;19.80;99.90
74384;DHT22;62824;52.994;-3.936;2023-07-08T13:08:18;20.10;99.90
74384;DHT22;62824;52.994;-3.936;2023-07-08T13:10:46;20.10;99.90
74384;DHT22;62824;52.994;-3.936;2023-07-08T13:13:15;19.80;99.90
74384;DHT22;62824;52.994;-3.936;2023-07-08T13:15:45;19.30;99.90
74384;DHT22;62824;52.994;-3.936;2023-07-08T13:18:16;19.30;99.90
74384;DHT22;62824;52.994;-3.936;2023-07-08T13:20:51;19.50;99.90
74384;DHT22;62824;52.994;-3.936;2023-07-08T13:23:18;19.60;99.90
74384;DHT22;62824;52.994;-3.936;2023-07-08T13:25:48;19.60;99.90
74384;DHT22;62824;52.994;-3.936;2023-07-08T13:28:24;19.70;99.90
74384;DHT22;62824;52.994;-3.936;2023-07-08T13:31:01;19.10;99.90
74384;DHT22;62824;52.994;-3.936;2023-07-08T13:33:33;19.00;99.90
74384;DHT22;62824;52.994;-3.936;2023-07-08T13:36:03;19.10;99.90
74384;DHT22;62824;52.994;-3.936;2023-07-08T13:38:34;19.10;99.90
74384;DHT22;62824;52.994;-3.936;2023-07-08T13:41:03;19.20;99.90
74384;DHT22;62824;52.994;-3.936;2023-07-08T13:43:32;19.30;99.90
74384;DHT22;62824;52.994;-3.936;2023-07-08T13:45:58;19.60;99.90
74384;DHT22;62824;52.994;-3.936;2023-07-08T13:51:01;19.40;99.90
74384;DHT22;62824;52.994;-3.936;2023-07-08T13:53:33;19.30;99.90
74384;DHT22;62824;52.994;-3.936;2023-07-08T13:56:27;19.40;99.90
74384;DHT22;62824;52.994;-3.936;2023-07-08T13:59:15;19.50;99.90
74384;DHT22;62824;52.994;-3.936;2023-07-08T14:01:43;19.40;99.90
74384;DHT22;62824;52.994;-3.936;2023-07-08T14:04:13;18.90;99.90
74384;DHT22;62824;52.994;-3.936;2023-07-08T14:06:40;19.10;99.90
74384;DHT22;62824;52.994;-3.936;2023-07-08T14:09:21;19.40;99.90
74384;DHT22;62824;52.994;-3.936;2023-07-08T14:11:48;19.80;96.80
74384;DHT22;62824;52.994;-3.936;2023-07-08T14:14:14;19.90;96.60
74384;DHT22;62824;52.994;-3.936;2023-07-08T14:16:48;20.30;92.40
74384;DHT22;62824;52.994;-3.936;2023-07-08T14:19:24;20.60;94.10
74384;DHT22;62824;52.994;-3.936;2023-07-08T14:21:57;21.50;66.40
74384;DHT22;62824;52.994;-3.936;2023-07-08T14:24:23;22.00;57.80
74384;DHT22;62824;52.994;-3.936;2023-07-08T14:26:50;21.40;50.10
74384;DHT22;62824;52.994;-3.936;2023-07-08T14:29:15;21.00;51.20
74384;DHT22;62824;52.994;-3.936;2023-07-08T14:31:41;21.30;48.20
74384;DHT22;62824;52.994;-3.936;2023-07-08T14:34:26;21.60;49.80
74384;DHT22;62824;52.994;-3.936;2023-07-08T14:36:53;21.80;44.80
74384;DHT22;62824;52.994;-3.936;2023-07-08T14:39:19;22.20;39.00
74384;DHT22;62824;52.994;-3.936;2023-07-08T14:41:47;22.20;38.80
74384;DHT22;62824;52.994;-3.936;2023-07-08T14:44:23;22.10;36.40
74384;DHT22;62824;52.994;-3.936;2023-07-08T14:46:50;22.40;34.00
74384;DHT22;62824;52.994;-3.936;2023-07-08T14:49:19;22.60;31.00
74384;DHT22;62824;52.994;-3.936;2023-07-08T14:51:45;22.30;31.00
74384;DHT22;62824;52.994;-3.936;2023-07-08T14:54:11;21.90;40.20
74384;DHT22;62824;52.994;-3.936;2023-07-08T14:56:38;22.30;39.60
74384;DHT22;62824;52.994;-3.936;2023-07-08T14:59:05;21.90;34.60
74384;DHT22;62824;52.994;-3.936;2023-07-08T15:01:31;21.50;35.80
74384;DHT22;62824;52.994;-3.936;2023-07-08T15:03:57;20.80;48.60
74384;DHT22;62824;52.994;-3.936;2023-07-08T15:06:24;21.20;49.90
74384;DHT22;62824;52.994;-3.936;2023-07-08T15:08:50;21.60;35.90
74384;DHT22;62824;52.994;-3.936;2023-07-08T15:11:17;21.10;34.70
74384;DHT22;62824;52.994;-3.936;2023-07-08T15:13:44;20.90;37.50
74384;DHT22;62824;52.994;-3.936;2023-07-08T15:16:13;20.60;46.40
74384;DHT22;62824;52.994;-3.936;2023-07-08T15:18:40;20.50;51.70
74384;DHT22;62824;52.994;-3.936;2023-07-08T15:21:11;20.70;52.30
74384;DHT22;62824;52.994;-3.936;2023-07-08T15:23:39;20.70;47.70
74384;DHT22;62824;52.994;-3.936;2023-07-08T15:26:09;20.80;50.10
74384;DHT22;62824;52.994;-3.936;2023-07-08T15:31:21;20.70;56.80
74384;DHT22;62824;52.994;-3.936;2023-07-08T15:33:50;20.50;55.30
74384;DHT22;62824;52.994;-3.936;2023-07-08T15:36:17;20.00;65.20
74384;DHT22;62824;52.994;-3.936;2023-07-08T15:38:43;20.20;69.10
74384;DHT22;62824;52.994;-3.936;2023-07-08T15:41:30;20.40;67.20
74384;DHT22;62824;52.994;-3.936;2023-07-08T15:43:56;20.10;61.10
74384;DHT22;62824;52.994;-3.936;2023-07-08T15:46:30;20.10;63.70
74384;DHT22;62824;52.994;-3.936;2023-07-08T15:48:57;19.80;70.00
74384;DHT22;62824;52.994;-3.936;2023-07-08T15:51:22;20.10;69.00
74384;DHT22;62824;52.994;-3.936;2023-07-08T15:53:49;20.40;54.70
74384;DHT22;62824;52.994;-3.936;2023-07-08T15:56:18;20.00;59.00
74384;DHT22;62824;52.994;-3.936;2023-07-08T15:58:45;19.70;67.70
74384;DHT22;62824;52.994;-3.936;2023-07-08T16:01:30;19.60;74.00
74384;DHT22;62824;52.994;-3.936;2023-07-08T16:03:56;19.90;70.50
74384;DHT22;62824;52.994;-3.936;2023-07-08T16:06:25;20.20;59.60
74384;DHT22;62824;52.994;-3.936;2023-07-08T16:08:51;20.50;53.30
74384;DHT22;62824;52.994;-3.936;2023-07-08T16:11:22;20.50;53.20
74384;DHT22;62824;52.994;-3.936;2023-07-08T16:13:50;20.30;54.20
74384;DHT22;62824;52.994;-3.936;2023-07-08T16:16:17;20.20;60.80
74384;DHT22;62824;52.994;-3.936;2023-07-08T16:18:42;20.10;67.10
74384;DHT22;62824;52.994;-3.936;2023-07-08T16:21:08;20.10;64.10
74384;DHT22;62824;52.994;-3.936;2023-07-08T16:23:34;20.00;67.30
74384;DHT22;62824;52.994;-3.936;2023-07-08T16:26:00;20.00;68.60
74384;DHT22;62824;52.994;-3.936;2023-07-08T16:28:40;20.00;67.70
74384;DHT22;62824;52.994;-3.936;2023-07-08T16:31:14;19.90;69.70